sensor_id;sensor_type;location;lat;lon;timestamp;temperature;humidity
44775;DHT22;31340;51.402;0.016;2023-02-15T00:00:07;6.60;97.50
44775;DHT22;31340;51.402;0.016;2023-02-15T00:02:39;6.50;97.50
44775;DHT22;31340;51.402;0.016;2023-02-15T00:05:07;6.50;97.60
44775;DHT22;31340;51.402;0.016;2023-02-15T00:07:35;6.60;97.70
44775;DHT22;31340;51.402;0.016;2023-02-15T00:10:03;6.50;97.80
44775;DHT22;31340;51.402;0.016;2023-02-15T00:12:31;6.60;98.10
44775;DHT22;31340;51.402;0.016;2023-02-15T00:14:59;6.60;98.20
44775;DHT22;31340;51.402;0.016;2023-02-15T00:17:28;6.60;98.30
44775;DHT22;31340;51.402;0.016;2023-02-15T00:19:55;6.60;98.70
44775;DHT22;31340;51.402;0.016;2023-02-15T00:22:25;6.70;98.50
44775;DHT22;31340;51.402;0.016;2023-02-15T00:24:53;6.60;98.70
44775;DHT22;31340;51.402;0.016;2023-02-15T00:27:20;6.70;98.80
44775;DHT22;31340;51.402;0.016;2023-02-15T00:29:49;6.70;99.30
44775;DHT22;31340;51.402;0.016;2023-02-15T00:32:16;6.80;99.20
44775;DHT22;31340;51.402;0.016;2023-02-15T00:34:44;6.80;99.30
44775;DHT22;31340;51.402;0.016;2023-02-15T00:37:12;6.90;99.40
44775;DHT22;31340;51.402;0.016;2023-02-15T00:39:40;6.90;99.40
44775;DHT22;31340;51.402;0.016;2023-02-15T00:42:08;6.90;99.50
44775;DHT22;31340;51.402;0.016;2023-02-15T00:44:36;7.00;99.50
44775;DHT22;31340;51.402;0.016;2023-02-15T00:47:03;7.00;99.40
44775;DHT22;31340;51.402;0.016;2023-02-15T00:49:31;7.00;99.40
44775;DHT22;31340;51.402;0.016;2023-02-15T00:52:00;7.00;99.40
44775;DHT22;31340;51.402;0.016;2023-02-15T00:54:28;7.10;99.40
44775;DHT22;31340;51.402;0.016;2023-02-15T00:56:56;7.00;99.30
44775;DHT22;31340;51.402;0.016;2023-02-15T00:59:24;7.10;99.30
44775;DHT22;31340;51.402;0.016;2023-02-15T01:01:52;7.10;99.30
44775;DHT22;31340;51.402;0.016;2023-02-15T01:04:19;7.00;99.30
44775;DHT22;31340;51.402;0.016;2023-02-15T01:06:47;7.10;99.30
44775;DHT22;31340;51.402;0.016;2023-02-15T01:09:15;7.10;99.30
44775;DHT22;31340;51.402;0.016;2023-02-15T01:11:43;7.10;99.30
44775;DHT22;31340;51.402;0.016;2023-02-15T01:14:11;7.10;99.30
44775;DHT22;31340;51.402;0.016;2023-02-15T01:16:41;7.10;99.30
44775;DHT22;31340;51.402;0.016;2023-02-15T01:19:09;7.10;99.30
44775;DHT22;31340;51.402;0.016;2023-02-15T01:21:36;7.10;99.40
44775;DHT22;31340;51.402;0.016;2023-02-15T01:24:04;7.10;99.40
44775;DHT22;31340;51.402;0.016;2023-02-15T01:26:32;7.10;99.40
44775;DHT22;31340;51.402;0.016;2023-02-15T01:29:00;7.10;99.50
44775;DHT22;31340;51.402;0.016;2023-02-15T01:31:27;7.10;99.80
44775;DHT22;31340;51.402;0.016;2023-02-15T01:33:55;7.10;99.40
44775;DHT22;31340;51.402;0.016;2023-02-15T01:36:23;7.10;99.50
44775;DHT22;31340;51.402;0.016;2023-02-15T01:38:51;7.20;99.50
44775;DHT22;31340;51.402;0.016;2023-02-15T01:41:19;7.10;99.40
44775;DHT22;31340;51.402;0.016;2023-02-15T01:43:50;7.10;99.40
44775;DHT22;31340;51.402;0.016;2023-02-15T01:46:22;7.10;99.40
44775;DHT22;31340;51.402;0.016;2023-02-15T01:48:54;7.10;99.50
44775;DHT22;31340;51.402;0.016;2023-02-15T01:51:24;7.10;99.50
44775;DHT22;31340;51.402;0.016;2023-02-15T01:53:54;7.10;99.50
44775;DHT22;31340;51.402;0.016;2023-02-15T01:56:29;7.10;99.40
44775;DHT22;31340;51.402;0.016;2023-02-15T01:59:00;7.00;99.50
44775;DHT22;31340;51.402;0.016;2023-02-15T02:01:31;7.00;99.50
44775;DHT22;31340;51.402;0.016;2023-02-15T02:06:33;7.10;99.70
44775;DHT22;31340;51.402;0.016;2023-02-15T02:09:03;7.10;99.70
44775;DHT22;31340;51.402;0.016;2023-02-15T02:11:32;7.10;99.70
44775;DHT22;31340;51.402;0.016;2023-02-15T02:14:00;7.10;99.70
44775;DHT22;31340;51.402;0.016;2023-02-15T02:19:41;7.10;99.80
44775;DHT22;31340;51.402;0.016;2023-02-15T02:36:52;7.10;99.80
44775;DHT22;31340;51.402;0.016;2023-02-15T02:45:19;7.00;99.80
44775;DHT22;31340;51.402;0.016;2023-02-15T02:47:53;7.00;99.80
44775;DHT22;31340;51.402;0.016;2023-02-15T02:50:26;7.00;99.80
44775;DHT22;31340;51.402;0.016;2023-02-15T02:52:55;7.00;99.90
44775;DHT22;31340;51.402;0.016;2023-02-15T02:55:41;7.00;99.80
44775;DHT22;31340;51.402;0.016;2023-02-15T02:58:21;7.10;99.90
44775;DHT22;31340;51.402;0.016;2023-02-15T03:03:40;7.00;99.90
44775;DHT22;31340;51.402;0.016;2023-02-15T03:06:15;7.00;99.90
44775;DHT22;31340;51.402;0.016;2023-02-15T03:08:50;7.00;99.90
44775;DHT22;31340;51.402;0.016;2023-02-15T03:11:18;7.00;99.90
44775;DHT22;31340;51.402;0.016;2023-02-15T03:13:48;7.00;99.90
44775;DHT22;31340;51.402;0.016;2023-02-15T03:16:18;7.00;99.90
44775;DHT22;31340;51.402;0.016;2023-02-15T03:19:05;6.90;99.90
44775;DHT22;31340;51.402;0.016;2023-02-15T03:21:56;6.90;99.90
44775;DHT22;31340;51.402;0.016;2023-02-15T03:24:35;6.90;99.90
44775;DHT22;31340;51.402;0.016;2023-02-15T03:27:09;6.80;99.90
44775;DHT22;31340;51.402;0.016;2023-02-15T03:29:39;6.80;99.90
44775;DHT22;31340;51.402;0.016;2023-02-15T03:32:09;6.80;99.90
44775;DHT22;31340;51.402;0.016;2023-02-15T03:34:38;6.80;99.90
44775;DHT22;31340;51.402;0.016;2023-02-15T03:37:16;6.70;99.90
44775;DHT22;31340;51.402;0.016;2023-02-15T03:39:49;6.70;99.90
44775;DHT22;31340;51.402;0.016;2023-02-15T03:42:38;6.70;99.70
44775;DHT22;31340;51.402;0.016;2023-02-15T03:45:13;6.60;99.80
44775;DHT22;31340;51.402;0.016;2023-02-15T03:47:47;6.60;99.80
44775;DHT22;31340;51.402;0.016;2023-02-15T03:50:36;6.50;99.70
44775;DHT22;31340;51.402;0.016;2023-02-15T03:53:25;6.50;99.70
44775;DHT22;31340;51.402;0.016;2023-02-15T03:55:54;6.50;99.70
44775;DHT22;31340;51.402;0.016;2023-02-15T03:58:22;6.40;99.70
44775;DHT22;31340;51.402;0.016;2023-02-15T04:01:22;6.40;99.70
44775;DHT22;31340;51.402;0.016;2023-02-15T04:04:36;6.40;99.70
44775;DHT22;31340;51.402;0.016;2023-02-15T04:07:06;6.30;99.60
44775;DHT22;31340;51.402;0.016;2023-02-15T04:09:34;6.30;99.70
44775;DHT22;31340;51.402;0.016;2023-02-15T04:12:21;6.30;99.70
44775;DHT22;31340;51.402;0.016;2023-02-15T04:14:48;6.20;99.80
44775;DHT22;31340;51.402;0.016;2023-02-15T04:17:36;6.30;99.90
44775;DHT22;31340;51.402;0.016;2023-02-15T04:20:04;6.30;99.90
44775;DHT22;31340;51.402;0.016;2023-02-15T04:22:50;6.20;99.90
44775;DHT22;31340;51.402;0.016;2023-02-15T04:25:36;6.20;99.90
44775;DHT22;31340;51.402;0.016;2023-02-15T04:28:04;6.20;99.90
44775;DHT22;31340;51.402;0.016;2023-02-15T04:30:31;6.20;99.90
44775;DHT22;31340;51.402;0.016;2023-02-15T04:32:59;6.30;99.90
44775;DHT22;31340;51.402;0.016;2023-02-15T04:35:26;6.30;99.90
44775;DHT22;31340;51.402;0.016;2023-02-15T04:37:54;6.30;99.90
44775;DHT22;31340;51.402;0.016;2023-02-15T04:40:23;6.30;99.90
44775;DHT22;31340;51.402;0.016;2023-02-15T04:42:50;6.30;99.90
44775;DHT22;31340;51.402;0.016;2023-02-15T04:45:18;6.40;99.90
44775;DHT22;31340;51.402;0.016;2023-02-15T04:47:46;6.40;99.90
44775;DHT22;31340;51.402;0.016;2023-02-15T04:50:14;6.40;99.90
44775;DHT22;31340;51.402;0.016;2023-02-15T04:52:41;6.40;99.90
44775;DHT22;31340;51.402;0.016;2023-02-15T04:55:09;6.50;99.90
44775;DHT22;31340;51.402;0.016;2023-02-15T04:57:37;6.50;99.90
44775;DHT22;31340;51.402;0.016;2023-02-15T05:00:06;6.50;99.90
44775;DHT22;31340;51.402;0.016;2023-02-15T05:02:33;6.60;99.90
44775;DHT22;31340;51.402;0.016;2023-02-15T05:05:01;6.60;99.90
44775;DHT22;31340;51.402;0.016;2023-02-15T05:07:29;6.70;99.90
44775;DHT22;31340;51.402;0.016;2023-02-15T05:09:57;6.70;99.90
44775;DHT22;31340;51.402;0.016;2023-02-15T05:12:24;6.70;99.90
44775;DHT22;31340;51.402;0.016;2023-02-15T05:14:52;6.80;99.90
44775;DHT22;31340;51.402;0.016;2023-02-15T05:17:20;6.80;99.90
44775;DHT22;31340;51.402;0.016;2023-02-15T05:19:48;6.80;99.90
44775;DHT22;31340;51.402;0.016;2023-02-15T05:25:29;6.90;99.90
44775;DHT22;31340;51.402;0.016;2023-02-15T05:28:15;6.90;99.90
44775;DHT22;31340;51.402;0.016;2023-02-15T05:31:10;7.00;99.90
44775;DHT22;31340;51.402;0.016;2023-02-15T05:33:45;7.10;99.90
44775;DHT22;31340;51.402;0.016;2023-02-15T05:36:31;7.10;99.90
44775;DHT22;31340;51.402;0.016;2023-02-15T05:38:59;7.20;99.90
44775;DHT22;31340;51.402;0.016;2023-02-15T05:41:44;7.20;99.90
44775;DHT22;31340;51.402;0.016;2023-02-15T05:44:11;7.20;99.90
44775;DHT22;31340;51.402;0.016;2023-02-15T05:46:39;7.30;99.90
44775;DHT22;31340;51.402;0.016;2023-02-15T05:49:08;7.40;99.90
44775;DHT22;31340;51.402;0.016;2023-02-15T05:51:42;7.40;99.90
44775;DHT22;31340;51.402;0.016;2023-02-15T05:54:12;7.40;99.90
44775;DHT22;31340;51.402;0.016;2023-02-15T05:56:41;7.50;99.90
44775;DHT22;31340;51.402;0.016;2023-02-15T05:59:15;7.50;99.90
44775;DHT22;31340;51.402;0.016;2023-02-15T06:01:50;7.50;99.90
44775;DHT22;31340;51.402;0.016;2023-02-15T06:04:21;7.60;99.90
44775;DHT22;31340;51.402;0.016;2023-02-15T06:06:49;7.60;99.90
44775;DHT22;31340;51.402;0.016;2023-02-15T06:09:24;7.60;99.90
44775;DHT22;31340;51.402;0.016;2023-02-15T06:11:58;7.60;99.90
44775;DHT22;31340;51.402;0.016;2023-02-15T06:14:31;7.70;99.90
44775;DHT22;31340;51.402;0.016;2023-02-15T06:17:00;7.70;99.90
44775;DHT22;31340;51.402;0.016;2023-02-15T06:19:30;7.80;99.90
44775;DHT22;31340;51.402;0.016;2023-02-15T06:21:58;7.80;99.90
44775;DHT22;31340;51.402;0.016;2023-02-15T06:24:28;7.80;99.90
44775;DHT22;31340;51.402;0.016;2023-02-15T06:26:56;7.80;99.90
44775;DHT22;31340;51.402;0.016;2023-02-15T06:29:26;7.90;99.90
44775;DHT22;31340;51.402;0.016;2023-02-15T06:31:58;8.00;99.90
44775;DHT22;31340;51.402;0.016;2023-02-15T06:37:29;7.90;99.90
44775;DHT22;31340;51.402;0.016;2023-02-15T06:40:03;8.00;99.90
44775;DHT22;31340;51.402;0.016;2023-02-15T06:42:31;8.00;99.90
44775;DHT22;31340;51.402;0.016;2023-02-15T06:45:01;8.00;99.90
44775;DHT22;31340;51.402;0.016;2023-02-15T06:47:29;8.10;99.90
44775;DHT22;31340;51.402;0.016;2023-02-15T06:49:59;8.10;99.90
44775;DHT22;31340;51.402;0.016;2023-02-15T06:52:29;8.10;99.90
44775;DHT22;31340;51.402;0.016;2023-02-15T06:55:15;8.10;99.90
44775;DHT22;31340;51.402;0.016;2023-02-15T06:57:44;8.00;99.90
44775;DHT22;31340;51.402;0.016;2023-02-15T07:00:13;8.00;99.90
44775;DHT22;31340;51.402;0.016;2023-02-15T07:02:56;8.00;99.90
44775;DHT22;31340;51.402;0.016;2023-02-15T07:05:26;8.00;99.90
44775;DHT22;31340;51.402;0.016;2023-02-15T07:08:03;8.00;99.90
44775;DHT22;31340;51.402;0.016;2023-02-15T07:10:39;8.00;99.90
44775;DHT22;31340;51.402;0.016;2023-02-15T07:13:19;7.90;99.90
44775;DHT22;31340;51.402;0.016;2023-02-15T07:15:48;7.90;99.90
44775;DHT22;31340;51.402;0.016;2023-02-15T07:18:21;7.90;99.90
44775;DHT22;31340;51.402;0.016;2023-02-15T07:20:53;7.80;99.90
44775;DHT22;31340;51.402;0.016;2023-02-15T07:23:23;7.80;99.90
44775;DHT22;31340;51.402;0.016;2023-02-15T07:26:02;7.80;99.90
44775;DHT22;31340;51.402;0.016;2023-02-15T07:28:33;7.70;99.90
44775;DHT22;31340;51.402;0.016;2023-02-15T07:31:04;7.70;99.90
44775;DHT22;31340;51.402;0.016;2023-02-15T07:33:34;7.80;99.90
44775;DHT22;31340;51.402;0.016;2023-02-15T07:36:04;7.80;99.90
44775;DHT22;31340;51.402;0.016;2023-02-15T07:38:52;7.80;99.90
44775;DHT22;31340;51.402;0.016;2023-02-15T07:41:20;7.70;99.90
44775;DHT22;31340;51.402;0.016;2023-02-15T07:43:48;7.70;99.90
44775;DHT22;31340;51.402;0.016;2023-02-15T07:46:16;7.70;99.90
44775;DHT22;31340;51.402;0.016;2023-02-15T07:48:45;7.70;99.90
44775;DHT22;31340;51.402;0.016;2023-02-15T07:51:13;7.70;99.90
44775;DHT22;31340;51.402;0.016;2023-02-15T07:53:52;7.70;99.90
44775;DHT22;31340;51.402;0.016;2023-02-15T07:56:20;7.80;99.90
44775;DHT22;31340;51.402;0.016;2023-02-15T07:58:58;7.70;99.90
44775;DHT22;31340;51.402;0.016;2023-02-15T08:01:35;7.70;99.90
44775;DHT22;31340;51.402;0.016;2023-02-15T08:04:09;7.70;99.90
44775;DHT22;31340;51.402;0.016;2023-02-15T08:06:45;7.80;99.90
44775;DHT22;31340;51.402;0.016;2023-02-15T08:09:15;7.90;99.90
44775;DHT22;31340;51.402;0.016;2023-02-15T08:11:47;7.90;99.90
44775;DHT22;31340;51.402;0.016;2023-02-15T08:14:20;8.00;99.90
44775;DHT22;31340;51.402;0.016;2023-02-15T08:16:50;8.00;99.90
44775;DHT22;31340;51.402;0.016;2023-02-15T08:19:29;8.10;99.90
44775;DHT22;31340;51.402;0.016;2023-02-15T08:22:00;8.10;99.90
44775;DHT22;31340;51.402;0.016;2023-02-15T08:24:41;8.20;99.90
44775;DHT22;31340;51.402;0.016;2023-02-15T08:27:11;8.20;99.90
44775;DHT22;31340;51.402;0.016;2023-02-15T08:29:44;8.30;99.90
44775;DHT22;31340;51.402;0.016;2023-02-15T08:32:13;8.50;99.90
44775;DHT22;31340;51.402;0.016;2023-02-15T08:34:47;8.40;99.90
44775;DHT22;31340;51.402;0.016;2023-02-15T08:37:20;8.50;99.90
44775;DHT22;31340;51.402;0.016;2023-02-15T08:39:49;8.50;99.90
44775;DHT22;31340;51.402;0.016;2023-02-15T08:42:17;8.60;99.90
44775;DHT22;31340;51.402;0.016;2023-02-15T08:44:58;8.60;99.90
44775;DHT22;31340;51.402;0.016;2023-02-15T08:47:34;8.60;99.90
44775;DHT22;31340;51.402;0.016;2023-02-15T08:50:01;8.70;99.90
44775;DHT22;31340;51.402;0.016;2023-02-15T08:52:34;8.70;99.90
44775;DHT22;31340;51.402;0.016;2023-02-15T08:55:04;9.40;99.90
44775;DHT22;31340;51.402;0.016;2023-02-15T08:57:34;8.80;99.90
44775;DHT22;31340;51.402;0.016;2023-02-15T09:00:11;8.90;99.90
44775;DHT22;31340;51.402;0.016;2023-02-15T09:02:42;9.30;99.90
44775;DHT22;31340;51.402;0.016;2023-02-15T09:05:13;9.20;99.90
44775;DHT22;31340;51.402;0.016;2023-02-15T09:07:42;9.10;99.90
44775;DHT22;31340;51.402;0.016;2023-02-15T09:10:10;9.10;99.90
44775;DHT22;31340;51.402;0.016;2023-02-15T09:12:39;9.20;99.90
44775;DHT22;31340;51.402;0.016;2023-02-15T09:15:09;9.30;99.90
44775;DHT22;31340;51.402;0.016;2023-02-15T09:17:36;9.40;99.90
44775;DHT22;31340;51.402;0.016;2023-02-15T09:20:06;9.50;99.90
44775;DHT22;31340;51.402;0.016;2023-02-15T09:22:39;9.60;99.90
44775;DHT22;31340;51.402;0.016;2023-02-15T09:25:19;9.70;99.90
44775;DHT22;31340;51.402;0.016;2023-02-15T09:27:52;9.80;99.90
44775;DHT22;31340;51.402;0.016;2023-02-15T09:30:23;9.90;99.90
44775;DHT22;31340;51.402;0.016;2023-02-15T09:32:58;10.00;99.90
44775;DHT22;31340;51.402;0.016;2023-02-15T09:35:46;10.20;99.90
44775;DHT22;31340;51.402;0.016;2023-02-15T09:38:30;10.30;99.90
44775;DHT22;31340;51.402;0.016;2023-02-15T09:41:19;10.50;99.90
44775;DHT22;31340;51.402;0.016;2023-02-15T09:49:40;10.90;99.90
44775;DHT22;31340;51.402;0.016;2023-02-15T09:55:28;11.20;99.90
44775;DHT22;31340;51.402;0.016;2023-02-15T10:01:32;11.40;99.90
44775;DHT22;31340;51.402;0.016;2023-02-15T10:06:44;11.60;99.90
44775;DHT22;31340;51.402;0.016;2023-02-15T10:09:29;11.70;99.90
44775;DHT22;31340;51.402;0.016;2023-02-15T10:15:24;11.90;99.90
44775;DHT22;31340;51.402;0.016;2023-02-15T10:20:56;12.00;99.50
44775;DHT22;31340;51.402;0.016;2023-02-15T10:26:48;12.20;99.10
44775;DHT22;31340;51.402;0.016;2023-02-15T10:40:36;12.60;98.40
44775;DHT22;31340;51.402;0.016;2023-02-15T10:46:37;12.70;97.80
44775;DHT22;31340;51.402;0.016;2023-02-15T10:52:14;12.80;97.40
44775;DHT22;31340;51.402;0.016;2023-02-15T11:00:45;13.00;97.30
44775;DHT22;31340;51.402;0.016;2023-02-15T11:06:07;13.10;97.10
44775;DHT22;31340;51.402;0.016;2023-02-15T11:08:44;13.20;96.80
44775;DHT22;31340;51.402;0.016;2023-02-15T11:11:32;13.30;96.70
44775;DHT22;31340;51.402;0.016;2023-02-15T11:14:27;13.30;96.60
44775;DHT22;31340;51.402;0.016;2023-02-15T11:17:08;13.40;96.40
44775;DHT22;31340;51.402;0.016;2023-02-15T11:20:08;13.50;96.30
44775;DHT22;31340;51.402;0.016;2023-02-15T11:22:33;13.60;96.20
44775;DHT22;31340;51.402;0.016;2023-02-15T11:25:02;13.60;96.10
44775;DHT22;31340;51.402;0.016;2023-02-15T11:27:32;13.80;95.90
44775;DHT22;31340;51.402;0.016;2023-02-15T11:30:05;13.90;95.60
44775;DHT22;31340;51.402;0.016;2023-02-15T11:32:46;13.90;95.30
44775;DHT22;31340;51.402;0.016;2023-02-15T11:35:37;14.00;95.10
44775;DHT22;31340;51.402;0.016;2023-02-15T11:38:22;14.10;95.00
44775;DHT22;31340;51.402;0.016;2023-02-15T11:41:02;14.20;94.70
44775;DHT22;31340;51.402;0.016;2023-02-15T11:46:25;14.40;94.50
44775;DHT22;31340;51.402;0.016;2023-02-15T11:48:53;14.60;94.40
44775;DHT22;31340;51.402;0.016;2023-02-15T11:51:23;14.70;94.10
44775;DHT22;31340;51.402;0.016;2023-02-15T11:53:51;14.80;94.00
44775;DHT22;31340;51.402;0.016;2023-02-15T11:56:22;15.00;93.70
44775;DHT22;31340;51.402;0.016;2023-02-15T11:59:01;15.20;93.40
44775;DHT22;31340;51.402;0.016;2023-02-15T12:10:26;15.90;92.50
44775;DHT22;31340;51.402;0.016;2023-02-15T12:13:16;16.10;92.20
44775;DHT22;31340;51.402;0.016;2023-02-15T12:15:51;16.20;91.80
44775;DHT22;31340;51.402;0.016;2023-02-15T12:18:39;16.50;91.60
44775;DHT22;31340;51.402;0.016;2023-02-15T12:23:47;16.90;91.10
44775;DHT22;31340;51.402;0.016;2023-02-15T12:26:31;17.10;90.40
44775;DHT22;31340;51.402;0.016;2023-02-15T12:29:06;17.30;89.80
44775;DHT22;31340;51.402;0.016;2023-02-15T12:31:38;17.40;89.80
44775;DHT22;31340;51.402;0.016;2023-02-15T12:37:00;17.80;87.90
44775;DHT22;31340;51.402;0.016;2023-02-15T12:39:31;18.00;87.50
44775;DHT22;31340;51.402;0.016;2023-02-15T12:42:15;18.10;87.00
44775;DHT22;31340;51.402;0.016;2023-02-15T12:45:19;18.30;86.00
44775;DHT22;31340;51.402;0.016;2023-02-15T12:47:50;18.40;84.90
44775;DHT22;31340;51.402;0.016;2023-02-15T12:50:35;18.50;84.90
44775;DHT22;31340;51.402;0.016;2023-02-15T12:53:19;18.60;83.80
44775;DHT22;31340;51.402;0.016;2023-02-15T12:56:09;18.60;82.90
44775;DHT22;31340;51.402;0.016;2023-02-15T12:58:39;18.80;82.20
44775;DHT22;31340;51.402;0.016;2023-02-15T13:01:25;18.70;82.80
44775;DHT22;31340;51.402;0.016;2023-02-15T13:03:57;18.80;82.20
44775;DHT22;31340;51.402;0.016;2023-02-15T13:06:27;19.00;82.20
44775;DHT22;31340;51.402;0.016;2023-02-15T13:11:46;19.30;81.90
44775;DHT22;31340;51.402;0.016;2023-02-15T13:14:19;19.50;80.90
44775;DHT22;31340;51.402;0.016;2023-02-15T13:16:50;19.70;79.80
44775;DHT22;31340;51.402;0.016;2023-02-15T13:19:37;19.90;79.00
44775;DHT22;31340;51.402;0.016;2023-02-15T13:22:33;20.20;78.00
44775;DHT22;31340;51.402;0.016;2023-02-15T13:25:09;20.30;77.00
44775;DHT22;31340;51.402;0.016;2023-02-15T13:27:41;20.50;76.00
44775;DHT22;31340;51.402;0.016;2023-02-15T13:30:25;20.70;75.70
44775;DHT22;31340;51.402;0.016;2023-02-15T13:32:58;20.80;74.00
44775;DHT22;31340;51.402;0.016;2023-02-15T13:35:45;20.90;73.70
44775;DHT22;31340;51.402;0.016;2023-02-15T13:41:04;21.20;71.00
44775;DHT22;31340;51.402;0.016;2023-02-15T13:46:53;21.40;69.60
44775;DHT22;31340;51.402;0.016;2023-02-15T13:49:48;21.60;69.60
44775;DHT22;31340;51.402;0.016;2023-02-15T13:52:27;21.70;67.70
44775;DHT22;31340;51.402;0.016;2023-02-15T13:55:20;21.80;67.00
44775;DHT22;31340;51.402;0.016;2023-02-15T13:58:09;21.90;65.80
44775;DHT22;31340;51.402;0.016;2023-02-15T14:11:59;22.20;63.70
44775;DHT22;31340;51.402;0.016;2023-02-15T14:18:01;22.40;61.90
44775;DHT22;31340;51.402;0.016;2023-02-15T14:20:48;22.50;62.30
44775;DHT22;31340;51.402;0.016;2023-02-15T14:23:28;22.50;61.40
44775;DHT22;31340;51.402;0.016;2023-02-15T14:26:19;22.60;61.20
44775;DHT22;31340;51.402;0.016;2023-02-15T14:31:56;22.60;60.40
44775;DHT22;31340;51.402;0.016;2023-02-15T14:34:30;22.60;60.00
44775;DHT22;31340;51.402;0.016;2023-02-15T14:37:04;22.60;60.10
44775;DHT22;31340;51.402;0.016;2023-02-15T14:42:59;22.70;58.90
44775;DHT22;31340;51.402;0.016;2023-02-15T14:45:52;22.70;59.30
44775;DHT22;31340;51.402;0.016;2023-02-15T14:48:30;22.70;58.90
44775;DHT22;31340;51.402;0.016;2023-02-15T14:51:00;22.70;58.60
44775;DHT22;31340;51.402;0.016;2023-02-15T14:53:33;22.70;58.10
44775;DHT22;31340;51.402;0.016;2023-02-15T15:01:32;22.60;56.60
44775;DHT22;31340;51.402;0.016;2023-02-15T15:07:19;22.50;57.00
44775;DHT22;31340;51.402;0.016;2023-02-15T15:10:07;22.80;57.60
44775;DHT22;31340;51.402;0.016;2023-02-15T15:12:56;22.30;57.80
44775;DHT22;31340;51.402;0.016;2023-02-15T15:18:08;22.30;57.80
44775;DHT22;31340;51.402;0.016;2023-02-15T15:20:47;22.30;57.70
44775;DHT22;31340;51.402;0.016;2023-02-15T15:26:30;22.20;57.40
44775;DHT22;31340;51.402;0.016;2023-02-15T15:29:15;22.20;57.50
44775;DHT22;31340;51.402;0.016;2023-02-15T15:32:22;22.10;57.90
44775;DHT22;31340;51.402;0.016;2023-02-15T15:49:57;21.40;58.70
44775;DHT22;31340;51.402;0.016;2023-02-15T15:52:33;21.30;58.60
44775;DHT22;31340;51.402;0.016;2023-02-15T15:55:15;21.20;58.50
44775;DHT22;31340;51.402;0.016;2023-02-15T15:57:55;21.00;58.40
44775;DHT22;31340;51.402;0.016;2023-02-15T16:03:01;20.60;59.40
44775;DHT22;31340;51.402;0.016;2023-02-15T16:05:38;20.50;60.00
44775;DHT22;31340;51.402;0.016;2023-02-15T16:08:06;20.20;60.60
44775;DHT22;31340;51.402;0.016;2023-02-15T16:10:34;20.00;61.40
44775;DHT22;31340;51.402;0.016;2023-02-15T16:13:05;19.80;62.00
44775;DHT22;31340;51.402;0.016;2023-02-15T16:15:51;19.60;62.50
44775;DHT22;31340;51.402;0.016;2023-02-15T16:18:46;19.30;62.90
44775;DHT22;31340;51.402;0.016;2023-02-15T16:21:31;19.00;63.60
44775;DHT22;31340;51.402;0.016;2023-02-15T16:27:00;18.60;65.10
44775;DHT22;31340;51.402;0.016;2023-02-15T16:29:34;18.30;66.00
44775;DHT22;31340;51.402;0.016;2023-02-15T16:32:14;18.10;66.50
44775;DHT22;31340;51.402;0.016;2023-02-15T16:34:56;18.00;67.10
44775;DHT22;31340;51.402;0.016;2023-02-15T16:37:27;17.80;67.80
44775;DHT22;31340;51.402;0.016;2023-02-15T16:39:57;17.60;68.30
44775;DHT22;31340;51.402;0.016;2023-02-15T16:42:29;17.50;69.00
44775;DHT22;31340;51.402;0.016;2023-02-15T16:47:30;17.10;70.20
44775;DHT22;31340;51.402;0.016;2023-02-15T16:50:01;17.00;70.40
44775;DHT22;31340;51.402;0.016;2023-02-15T16:52:32;16.90;71.10
44775;DHT22;31340;51.402;0.016;2023-02-15T16:55:05;16.70;71.50
44775;DHT22;31340;51.402;0.016;2023-02-15T16:57:37;16.60;72.40
44775;DHT22;31340;51.402;0.016;2023-02-15T17:00:26;16.50;72.90
44775;DHT22;31340;51.402;0.016;2023-02-15T17:03:05;16.40;73.40
44775;DHT22;31340;51.402;0.016;2023-02-15T17:05:42;16.20;73.50
44775;DHT22;31340;51.402;0.016;2023-02-15T17:11:11;16.00;74.50
44775;DHT22;31340;51.402;0.016;2023-02-15T17:13:40;15.90;75.10
44775;DHT22;31340;51.402;0.016;2023-02-15T17:19:13;15.60;75.50
44775;DHT22;31340;51.402;0.016;2023-02-15T17:22:05;15.50;75.80
44775;DHT22;31340;51.402;0.016;2023-02-15T17:24:38;15.40;76.30
44775;DHT22;31340;51.402;0.016;2023-02-15T17:27:22;15.30;76.40
44775;DHT22;31340;51.402;0.016;2023-02-15T17:29:56;15.20;77.60
44775;DHT22;31340;51.402;0.016;2023-02-15T17:32:27;15.10;77.20
44775;DHT22;31340;51.402;0.016;2023-02-15T17:37:48;15.00;77.90
44775;DHT22;31340;51.402;0.016;2023-02-15T17:40:28;14.90;78.40
44775;DHT22;31340;51.402;0.016;2023-02-15T17:42:57;14.80;78.80
44775;DHT22;31340;51.402;0.016;2023-02-15T17:45:30;14.70;78.90
44775;DHT22;31340;51.402;0.016;2023-02-15T17:48:02;14.60;79.50
44775;DHT22;31340;51.402;0.016;2023-02-15T17:50:31;14.60;79.80
44775;DHT22;31340;51.402;0.016;2023-02-15T17:53:00;14.50;80.10
44775;DHT22;31340;51.402;0.016;2023-02-15T17:55:28;14.40;80.50
44775;DHT22;31340;51.402;0.016;2023-02-15T17:58:05;14.40;80.80
44775;DHT22;31340;51.402;0.016;2023-02-15T18:00:55;14.30;81.20
44775;DHT22;31340;51.402;0.016;2023-02-15T18:03:46;14.20;81.70
44775;DHT22;31340;51.402;0.016;2023-02-15T18:06:37;14.10;81.80
44775;DHT22;31340;51.402;0.016;2023-02-15T18:09:25;14.00;82.00
44775;DHT22;31340;51.402;0.016;2023-02-15T18:12:25;13.90;82.30
44775;DHT22;31340;51.402;0.016;2023-02-15T18:14:58;13.80;83.00
44775;DHT22;31340;51.402;0.016;2023-02-15T18:17:32;13.80;83.20
44775;DHT22;31340;51.402;0.016;2023-02-15T18:20:02;13.70;83.60
44775;DHT22;31340;51.402;0.016;2023-02-15T18:22:37;13.60;83.70
44775;DHT22;31340;51.402;0.016;2023-02-15T18:25:19;13.60;84.10
44775;DHT22;31340;51.402;0.016;2023-02-15T18:27:49;13.50;84.50
44775;DHT22;31340;51.402;0.016;2023-02-15T18:30:23;13.50;84.80
44775;DHT22;31340;51.402;0.016;2023-02-15T18:33:01;13.40;85.20
44775;DHT22;31340;51.402;0.016;2023-02-15T18:35:32;13.40;85.60
44775;DHT22;31340;51.402;0.016;2023-02-15T18:38:00;13.30;85.80
44775;DHT22;31340;51.402;0.016;2023-02-15T18:40:30;13.30;86.10
44775;DHT22;31340;51.402;0.016;2023-02-15T18:43:07;13.20;86.40
44775;DHT22;31340;51.402;0.016;2023-02-15T18:45:36;13.20;86.80
44775;DHT22;31340;51.402;0.016;2023-02-15T18:48:08;13.20;87.00
44775;DHT22;31340;51.402;0.016;2023-02-15T18:50:38;13.10;87.30
44775;DHT22;31340;51.402;0.016;2023-02-15T18:53:15;13.10;87.60
44775;DHT22;31340;51.402;0.016;2023-02-15T18:55:45;13.10;88.00
44775;DHT22;31340;51.402;0.016;2023-02-15T18:58:21;13.00;88.10
44775;DHT22;31340;51.402;0.016;2023-02-15T19:01:02;13.00;88.50
44775;DHT22;31340;51.402;0.016;2023-02-15T19:03:32;12.90;88.60
44775;DHT22;31340;51.402;0.016;2023-02-15T19:06:00;13.20;89.20
44775;DHT22;31340;51.402;0.016;2023-02-15T19:08:31;12.90;89.30
44775;DHT22;31340;51.402;0.016;2023-02-15T19:11:19;12.90;89.50
44775;DHT22;31340;51.402;0.016;2023-02-15T19:13:51;12.80;90.00
44775;DHT22;31340;51.402;0.016;2023-02-15T19:16:33;12.80;90.10
44775;DHT22;31340;51.402;0.016;2023-02-15T19:19:07;12.90;90.30
44775;DHT22;31340;51.402;0.016;2023-02-15T19:21:38;12.80;90.40
44775;DHT22;31340;51.402;0.016;2023-02-15T19:24:19;12.70;90.60